Time;durP1;ratioP1;P1;durP2;ratioP2;P2;SDS_P1;SDS_P2;PMS_P1;PMS_P2;Temp;Humidity;BMP_temperature;BMP_pressure;BME280_temperature;BME280_humidity;BME280_pressure;Samples;Min_cycle;Max_cycle;Signal;HPM_P1;HPM_P2
2022/11/17 00:02:16;;;;;;;;;2.50;2.00;;;;;1.68;92.48;97231.31;4966692;28;104188;-72
2022/11/17 00:04:44;;;;;;;;;1.75;1.00;;;;;1.71;92.76;97236.31;4973184;27;102273;-72
2022/11/17 00:07:11;;;;;;;;;1.50;1.50;;;;;1.73;93.22;97229.78;4973843;28;102017;-72
2022/11/17 00:09:38;;;;;;;;;3.50;1.00;;;;;1.76;92.67;97229.41;4972123;28;102145;-72
2022/11/17 00:14:58;;;;;;;;;1.00;1.00;;;;;1.71;91.43;97231.78;4969931;28;102415;-72
2022/11/17 00:17:25;;;;;;;;;1.50;1.25;;;;;1.81;91.96;97239.53;4970710;28;102246;-72
2022/11/17 00:22:38;;;;;;;;;1.00;1.00;;;;;1.80;91.84;97220.06;4974684;28;108878;-73
2022/11/17 00:25:05;;;;;;;;;3.00;3.00;;;;;1.79;92.22;97222.91;4973345;28;102176;-73
2022/11/17 00:27:32;;;;;;;;;2.50;2.00;;;;;1.77;92.45;97224.91;4972069;28;103128;-73
2022/11/17 00:29:59;;;;;;;;;3.50;3.50;;;;;1.68;92.10;97202.03;4974098;28;102082;-72
2022/11/17 00:35:11;;;;;;;;;6.00;5.00;;;;;1.65;93.13;97210.38;4967136;27;102450;-71
2022/11/17 00:40:25;;;;;;;;;6.00;3.50;;;;;1.63;92.72;97213.22;4964658;27;102566;-72
2022/11/17 00:42:52;;;;;;;;;4.75;2.75;;;;;1.69;93.91;97217.00;4961222;28;103294;-71
2022/11/17 00:45:19;;;;;;;;;2.00;2.00;;;;;1.70;92.66;97222.16;4967091;28;102157;-72
2022/11/17 00:47:47;;;;;;;;;3.00;3.00;;;;;1.69;92.84;97223.16;4971546;28;102287;-71
2022/11/17 00:50:14;;;;;;;;;3.50;3.00;;;;;1.75;93.22;97224.28;4965867;28;102448;-72
2022/11/17 00:52:41;;;;;;;;;2.75;2.00;;;;;1.74;92.74;97223.47;4967285;28;104073;-72
2022/11/17 00:55:08;;;;;;;;;3.25;3.25;;;;;1.74;92.47;97234.13;4969287;27;102135;-73
2022/11/17 00:57:35;;;;;;;;;1.00;1.00;;;;;1.81;92.69;97231.53;4967200;28;102147;-72
2022/11/17 01:00:03;;;;;;;;;0.25;0.25;;;;;1.80;92.14;97233.38;4967377;28;102233;-72
2022/11/17 01:02:30;;;;;;;;;1.00;1.00;;;;;1.83;92.89;97228.72;4965102;28;104007;-72
2022/11/17 01:04:57;;;;;;;;;3.00;1.50;;;;;1.87;93.05;97224.69;4966414;28;104067;-72
2022/11/17 01:07:24;;;;;;;;;2.75;1.75;;;;;1.85;92.86;97227.50;4963678;28;104005;-72
2022/11/17 01:09:51;;;;;;;;;1.25;1.25;;;;;1.86;92.71;97220.34;4967548;28;102694;-72
2022/11/17 01:12:18;;;;;;;;;0.00;0.00;;;;;1.86;92.83;97212.34;4967705;28;103962;-72
2022/11/17 01:14:46;;;;;;;;;2.50;2.00;;;;;1.84;92.99;97207.22;4960262;28;102479;-72
2022/11/17 01:17:13;;;;;;;;;2.00;2.00;;;;;1.63;92.24;97180.41;4964153;28;102364;-72
2022/11/17 01:19:40;;;;;;;;;2.50;2.00;;;;;1.79;92.36;97199.78;4969695;28;102123;-72
2022/11/17 01:22:07;;;;;;;;;2.00;2.00;;;;;1.81;92.60;97210.22;4965510;28;111205;-72
2022/11/17 01:24:34;;;;;;;;;2.00;1.00;;;;;1.80;93.13;97214.72;4963916;28;102273;-72
2022/11/17 01:27:01;;;;;;;;;1.50;1.50;;;;;1.83;92.33;97202.91;4967536;28;102300;-72
2022/11/17 01:29:28;;;;;;;;;2.50;1.00;;;;;1.84;92.38;97214.38;4967566;28;102289;-72
2022/11/17 01:31:55;;;;;;;;;0.50;0.25;;;;;1.82;92.28;97213.72;4966770;28;104000;-72
2022/11/17 01:34:22;;;;;;;;;2.00;1.00;;;;;1.85;91.95;97211.53;4965444;28;102429;-72
2022/11/17 01:39:34;;;;;;;;;1.75;1.00;;;;;1.95;92.72;97219.25;4966217;28;102982;-73
2022/11/17 01:42:04;;;;;;;;;2.00;1.00;;;;;1.95;92.22;97216.59;4967377;28;103954;-71
2022/11/17 01:45:01;;;;;;;;;0.00;0.00;;;;;2.02;92.61;97212.22;4970902;28;103676;-73
2022/11/17 01:47:49;;;;;;;;;2.00;1.00;;;;;2.04;93.40;97210.19;4963448;28;102474;-72
2022/11/17 01:50:19;;;;;;;;;5.00;2.00;;;;;1.98;93.11;97213.59;4969609;28;102394;-71
2022/11/17 01:52:49;;;;;;;;;1.75;0.75;;;;;1.95;92.70;97195.28;4979390;28;103642;-71
2022/11/17 01:55:18;;;;;;;;;7.50;4.50;;;;;1.90;92.60;97197.66;4968983;27;101952;-71
2022/11/17 01:57:52;;;;;;;;;3.50;2.75;;;;;1.90;93.44;97195.81;4969339;28;102125;-72
2022/11/17 02:00:19;;;;;;;;;1.00;1.00;;;;;1.84;92.61;97185.91;4969032;28;102660;-72
2022/11/17 02:02:47;;;;;;;;;2.50;2.00;;;;;1.93;93.05;97186.66;4969440;28;103988;-72
2022/11/17 02:05:35;;;;;;;;;2.50;1.00;;;;;1.93;93.62;97191.97;4971985;28;102366;-72
2022/11/17 02:08:34;;;;;;;;;4.00;2.00;;;;;1.87;93.59;97182.03;4970226;28;102226;-72
2022/11/17 02:11:26;;;;;;;;;2.25;2.25;;;;;1.87;92.80;97187.38;4974281;28;102408;-72
2022/11/17 02:14:12;;;;;;;;;1.00;1.00;;;;;1.96;92.93;97197.78;4971575;28;103639;-73
2022/11/17 02:17:02;;;;;;;;;1.00;1.00;;;;;2.01;93.50;97194.56;4962128;28;110932;-73
2022/11/17 02:20:08;;;;;;;;;1.75;1.25;;;;;2.10;93.09;97198.81;4968383;28;102942;-72
2022/11/17 02:22:54;;;;;;;;;0.00;0.00;;;;;2.17;92.43;97194.38;4972859;28;102067;-73
2022/11/17 02:25:29;;;;;;;;;0.00;0.00;;;;;2.20;92.07;97200.19;4973820;28;103965;-71
2022/11/17 02:28:09;;;;;;;;;0.00;0.00;;;;;2.16;92.30;97200.75;4974968;28;101964;-72
2022/11/17 02:30:57;;;;;;;;;1.00;1.00;;;;;2.10;92.50;97204.13;4968086;28;102363;-72
2022/11/17 02:33:53;;;;;;;;;2.00;1.00;;;;;2.14;92.38;97208.09;4961442;28;102278;-72
2022/11/17 02:40:09;;;;;;;;;1.00;0.00;;;;;2.17;92.47;97194.38;4959083;28;102469;-73
2022/11/17 02:45:38;;;;;;;;;1.75;1.50;;;;;2.18;91.96;97201.38;4973483;27;102258;-73
2022/11/17 02:48:15;;;;;;;;;0.00;0.00;;;;;2.23;91.37;97207.00;4969538;28;104015;-72
2022/11/17 02:50:45;;;;;;;;;1.00;1.00;;;;;2.16;91.28;97200.75;4962944;28;101921;-73
2022/11/17 02:53:13;;;;;;;;;0.00;0.00;;;;;2.22;92.35;97208.00;4964484;28;102125;-72
2022/11/17 02:55:50;;;;;;;;;0.75;0.75;;;;;2.25;91.94;97205.78;4967754;28;102316;-72
2022/11/17 02:58:17;;;;;;;;;1.00;1.00;;;;;2.24;92.26;97206.00;4968714;28;108675;-73
2022/11/17 03:01:12;;;;;;;;;2.00;1.00;;;;;2.16;92.15;97208.75;4973250;28;102470;-74
2022/11/17 03:03:54;;;;;;;;;2.25;2.00;;;;;2.15;92.67;97199.09;4973653;28;102381;-72
2022/11/17 03:06:30;;;;;;;;;1.00;1.00;;;;;2.23;91.63;97196.31;4958847;28;102246;-72
2022/11/17 03:09:09;;;;;;;;;1.00;1.00;;;;;2.22;91.71;97211.50;4972517;28;104223;-73
2022/11/17 03:11:46;;;;;;;;;3.00;2.25;;;;;2.21;92.39;97211.66;4967439;28;102352;-72
2022/11/17 03:14:33;;;;;;;;;1.25;1.25;;;;;2.22;91.67;97218.66;4972476;28;103642;-72
2022/11/17 03:17:10;;;;;;;;;2.00;1.00;;;;;2.25;91.60;97207.66;4968295;28;102369;-72
2022/11/17 03:19:46;;;;;;;;;1.00;1.00;;;;;2.13;91.47;97190.44;4964206;28;103989;-72
2022/11/17 03:22:30;;;;;;;;;2.00;2.00;;;;;2.16;93.07;97198.09;4965961;28;102328;-72
2022/11/17 03:25:02;;;;;;;;;1.00;1.00;;;;;2.02;92.70;97181.06;4961836;28;104068;-73
2022/11/17 03:27:44;;;;;;;;;2.00;1.50;;;;;2.01;91.72;97194.56;4970737;28;102452;-73
2022/11/17 03:30:12;;;;;;;;;2.50;1.50;;;;;2.02;92.72;97198.88;4971748;27;108601;-73
2022/11/17 03:32:45;;;;;;;;;1.00;1.00;;;;;2.09;92.61;97197.13;4973567;28;102238;-72
2022/11/17 03:35:17;;;;;;;;;0.00;0.00;;;;;2.11;92.80;97203.13;4972898;28;102245;-72
2022/11/17 03:37:49;;;;;;;;;0.50;0.00;;;;;2.13;92.62;97204.59;4972209;28;102412;-73
2022/11/17 03:40:21;;;;;;;;;1.00;1.00;;;;;2.05;92.08;97202.00;4971453;28;103732;-73
2022/11/17 03:42:52;;;;;;;;;2.25;2.00;;;;;2.06;92.68;97186.84;4971449;28;102995;-72
2022/11/17 03:45:24;;;;;;;;;2.00;2.00;;;;;1.96;93.27;97197.78;4971558;28;103381;-73
2022/11/17 03:47:59;;;;;;;;;2.00;1.25;;;;;2.05;93.08;97194.00;4972541;28;101997;-72
2022/11/17 03:50:35;;;;;;;;;2.00;1.25;;;;;1.99;93.29;97196.56;4969943;28;104012;-73
2022/11/17 03:53:03;;;;;;;;;1.00;1.00;;;;;2.02;92.94;97194.38;4960371;28;102216;-73
2022/11/17 03:56:01;;;;;;;;;2.00;2.00;;;;;1.98;93.18;97201.06;4966616;28;102163;-73
2022/11/17 03:58:33;;;;;;;;;2.75;2.00;;;;;1.97;92.56;97194.09;4961097;28;102196;-72
2022/11/17 04:01:03;;;;;;;;;7.25;4.50;;;;;1.93;94.16;97198.16;4960608;28;103950;-72
2022/11/17 04:03:33;;;;;;;;;1.00;1.00;;;;;1.94;94.14;97188.28;4972239;28;102265;-73
2022/11/17 04:06:01;;;;;;;;;2.75;2.00;;;;;1.94;93.97;97188.28;4968904;28;102429;-72
2022/11/17 04:08:29;;;;;;;;;3.25;2.25;;;;;1.87;93.78;97180.19;4966174;28;102478;-73
2022/11/17 04:16:27;;;;;;;;;3.50;2.75;;;;;1.95;94.06;97197.94;4962089;28;102149;-73
2022/11/17 04:18:54;;;;;;;;;3.00;2.00;;;;;1.84;93.49;97187.75;4972307;28;102435;-73
2022/11/17 04:21:25;;;;;;;;;4.50;2.75;;;;;1.94;93.33;97193.63;4968888;28;104092;-73
2022/11/17 04:23:51;;;;;;;;;6.50;6.00;;;;;1.96;93.68;97197.78;4966273;28;101992;-73
2022/11/17 04:29:05;;;;;;;;;2.00;2.00;;;;;1.94;93.50;97198.94;4966870;28;102094;-72
2022/11/17 04:31:32;;;;;;;;;3.00;2.75;;;;;2.00;94.03;97199.06;4963553;28;103994;-72
2022/11/17 04:34:03;;;;;;;;;1.00;1.00;;;;;2.04;92.95;97210.19;4969113;28;102133;-73
2022/11/17 04:36:36;;;;;;;;;5.00;3.25;;;;;2.08;93.21;97198.13;4970588;27;102150;-73
2022/11/17 04:39:03;;;;;;;;;3.75;1.50;;;;;2.04;92.91;97200.34;4967497;28;102263;-73
2022/11/17 04:44:16;;;;;;;;;2.00;2.00;;;;;2.07;93.55;97194.66;4952857;28;102066;-73
2022/11/17 04:46:47;;;;;;;;;2.00;2.00;;;;;2.12;93.59;97199.44;4966431;28;102662;-74
2022/11/17 04:49:15;;;;;;;;;1.50;1.25;;;;;1.95;93.53;97180.13;4964108;28;102159;-73
2022/11/17 04:51:43;;;;;;;;;4.00;4.00;;;;;1.96;93.23;97208.44;4966533;28;109515;-74
2022/11/17 04:54:13;;;;;;;;;3.00;2.75;;;;;2.03;93.68;97203.19;4969048;28;102061;-74
2022/11/17 04:56:40;;;;;;;;;3.50;3.00;;;;;1.83;93.89;97178.91;4961882;28;103645;-73
2022/11/17 04:59:08;;;;;;;;;2.50;2.00;;;;;1.98;93.45;97200.25;4972959;28;102092;-73
2022/11/17 05:01:36;;;;;;;;;5.00;4.50;;;;;1.99;93.49;97204.56;4968539;28;103932;-74
2022/11/17 05:04:08;;;;;;;;;3.25;3.25;;;;;1.96;93.46;97199.59;4967080;28;103140;-74
2022/11/17 05:06:38;;;;;;;;;6.00;4.50;;;;;1.95;92.52;97205.94;4966292;28;102514;-72
2022/11/17 05:09:08;;;;;;;;;2.25;1.75;;;;;1.95;93.12;97208.59;4969526;28;102599;-74
2022/11/17 05:14:22;;;;;;;;;1.00;1.00;;;;;2.03;93.22;97214.69;4965394;28;101961;-74
2022/11/17 05:17:05;;;;;;;;;5.25;2.75;;;;;1.85;92.68;97192.06;4965290;28;102486;-74
2022/11/17 05:19:46;;;;;;;;;3.50;3.00;;;;;1.90;92.05;97218.97;4965213;28;102306;-73
2022/11/17 05:25:01;;;;;;;;;1.25;1.25;;;;;1.88;93.22;97211.19;4966634;28;102209;-73
2022/11/17 05:27:28;;;;;;;;;1.75;1.75;;;;;1.77;92.85;97208.94;4964805;28;102282;-72
2022/11/17 05:29:55;;;;;;;;;73.00;58.33;;;;;1.77;92.71;97212.44;4968992;28;102468;-73
2022/11/17 05:32:22;;;;;;;;;5.75;5.50;;;;;1.72;93.01;97209.47;4960373;28;104193;-74
2022/11/17 05:34:49;;;;;;;;;3.00;3.00;;;;;1.75;92.41;97210.97;4956739;28;102356;-74
2022/11/17 05:37:16;;;;;;;;;2.50;2.00;;;;;1.65;93.15;97211.22;4969964;28;102176;-72
2022/11/17 05:39:43;;;;;;;;;2.00;1.00;;;;;1.70;92.19;97221.34;4975096;28;102436;-72
2022/11/17 05:42:10;;;;;;;;;1.00;0.50;;;;;1.67;92.42;97222.50;4972184;28;108594;-72
2022/11/17 05:44:38;;;;;;;;;0.75;0.75;;;;;1.68;92.39;97232.16;4967438;28;102338;-72
2022/11/17 05:47:05;;;;;;;;;0.25;0.00;;;;;1.62;93.37;97235.53;4965707;28;102408;-73
2022/11/17 05:49:32;;;;;;;;;0.50;0.50;;;;;1.71;93.16;97231.00;4969128;28;102053;-73
2022/11/17 05:51:59;;;;;;;;;1.00;1.00;;;;;1.66;93.40;97238.69;4969871;28;104137;-73
2022/11/17 05:54:25;;;;;;;;;1.25;1.25;;;;;1.64;93.02;97241.50;4961436;28;102651;-73
2022/11/17 05:57:03;;;;;;;;;0.00;0.00;;;;;1.61;93.21;97231.22;4970993;28;102171;-73
2022/11/17 05:59:38;;;;;;;;;0.50;0.50;;;;;1.54;93.39;97232.09;4968170;28;103991;-73
2022/11/17 06:02:07;;;;;;;;;1.00;1.00;;;;;1.56;94.12;97243.41;4969273;28;104305;-73
2022/11/17 06:04:34;;;;;;;;;1.00;1.00;;;;;1.57;93.60;97248.56;4969531;28;102415;-73
2022/11/17 06:07:01;;;;;;;;;0.00;0.00;;;;;1.63;92.78;97245.19;4965638;27;102943;-73
2022/11/17 06:09:34;;;;;;;;;2.00;2.00;;;;;1.69;93.34;97249.81;4968874;28;102038;-72
2022/11/17 06:12:01;;;;;;;;;1.00;1.00;;;;;1.66;92.62;97255.50;4967093;27;104040;-73
2022/11/17 06:14:33;;;;;;;;;3.00;2.00;;;;;1.61;92.23;97252.53;4967054;28;101957;-73
2022/11/17 06:17:06;;;;;;;;;2.00;1.00;;;;;1.56;92.66;97254.91;4964831;28;106773;-73
2022/11/17 06:19:40;;;;;;;;;2.00;2.00;;;;;1.59;92.73;97264.38;4972895;28;102125;-73
2022/11/17 06:22:08;;;;;;;;;2.00;1.00;;;;;1.54;93.52;97259.56;4971116;27;103954;-72
2022/11/17 06:24:43;;;;;;;;;1.50;0.50;;;;;1.53;92.85;97252.56;4973010;28;102140;-73
2022/11/17 06:27:12;;;;;;;;;1.25;1.00;;;;;1.57;92.76;97256.56;4966718;28;102188;-74
2022/11/17 06:29:40;;;;;;;;;1.00;1.00;;;;;1.55;93.12;97263.06;4973109;28;103117;-73
2022/11/17 06:32:13;;;;;;;;;4.25;2.75;;;;;1.54;93.43;97266.72;4972387;28;109129;-73
2022/11/17 06:34:42;;;;;;;;;2.00;0.00;;;;;1.58;93.07;97263.53;4967012;28;101982;-73
2022/11/17 06:37:10;;;;;;;;;1.50;0.25;;;;;1.61;93.11;97263.19;4971762;27;102069;-73
2022/11/17 06:39:37;;;;;;;;;2.00;2.00;;;;;1.64;93.93;97267.31;4966559;27;102855;-73
2022/11/17 06:42:04;;;;;;;;;2.00;2.00;;;;;1.67;93.56;97275.78;4966402;28;104123;-73
2022/11/17 06:44:31;;;;;;;;;1.00;1.00;;;;;1.56;92.22;97262.91;4959433;28;102167;-73
2022/11/17 06:46:57;;;;;;;;;3.00;2.00;;;;;1.45;92.08;97275.78;4970350;28;103192;-74
2022/11/17 06:49:24;;;;;;;;;1.75;1.00;;;;;1.42;92.82;97265.47;4973219;28;102087;-73
2022/11/17 06:51:51;;;;;;;;;1.75;1.00;;;;;1.39;91.93;97268.50;4975017;28;103960;-73
2022/11/17 06:54:18;;;;;;;;;2.25;2.25;;;;;1.32;91.57;97277.19;4975605;28;102037;-74
2022/11/17 06:56:45;;;;;;;;;1.75;1.75;;;;;1.37;91.84;97258.03;4975502;28;102089;-73
2022/11/17 06:59:14;;;;;;;;;1.00;1.00;;;;;1.40;92.80;97270.97;4974606;28;102204;-73
2022/11/17 07:01:42;;;;;;;;;1.25;1.25;;;;;1.35;92.40;97268.03;4970533;27;108659;-73
2022/11/17 07:04:09;;;;;;;;;2.50;2.00;;;;;1.38;91.86;97270.34;4965826;28;102255;-73
2022/11/17 07:06:36;;;;;;;;;4.50;1.50;;;;;1.32;91.11;97268.38;4975698;27;101903;-73
2022/11/17 07:09:04;;;;;;;;;2.00;2.00;;;;;1.34;91.62;97269.03;4975043;27;102232;-73
2022/11/17 07:11:34;;;;;;;;;1.00;1.00;;;;;1.29;91.14;97268.72;4968554;28;103967;-73
2022/11/17 07:14:01;;;;;;;;;3.00;2.00;;;;;1.25;92.15;97267.44;4972830;28;102481;-73
2022/11/17 07:16:29;;;;;;;;;2.00;2.00;;;;;1.21;91.14;97266.97;4973171;28;102018;-73
2022/11/17 07:18:58;;;;;;;;;1.00;1.00;;;;;1.25;91.60;97267.44;4974047;28;102270;-72
2022/11/17 07:21:25;;;;;;;;;1.00;0.75;;;;;1.27;91.94;97268.06;4972181;28;103991;-72
2022/11/17 07:23:52;;;;;;;;;2.00;1.75;;;;;1.25;92.10;97267.44;4975271;28;102461;-73
2022/11/17 07:26:19;;;;;;;;;3.25;2.00;;;;;1.28;92.27;97270.56;4971725;28;102118;-72
2022/11/17 07:28:46;;;;;;;;;2.00;2.00;;;;;1.21;91.12;97276.78;4976871;28;102171;-72
2022/11/17 07:31:13;;;;;;;;;2.00;1.00;;;;;1.28;91.15;97275.06;4977366;28;104046;-73
2022/11/17 07:33:40;;;;;;;;;1.00;1.00;;;;;1.19;90.94;97276.94;4971719;28;102360;-73
2022/11/17 07:36:09;;;;;;;;;5.25;4.00;;;;;1.22;91.45;97297.88;4974484;28;102019;-73
2022/11/17 07:38:38;;;;;;;;;4.00;2.00;;;;;1.25;91.80;97297.53;4975570;27;102271;-73
2022/11/17 07:41:08;;;;;;;;;1.50;1.50;;;;;1.32;91.70;97289.69;4970469;28;104275;-73
2022/11/17 07:43:35;;;;;;;;;1.75;1.75;;;;;1.29;91.92;97290.03;4974676;27;102344;-73
2022/11/17 07:46:04;;;;;;;;;2.00;2.00;;;;;1.17;91.55;97264.81;4966370;27;103603;-73
2022/11/17 07:48:32;;;;;;;;;3.25;1.25;;;;;1.22;91.19;97271.25;4959341;28;102247;-73
2022/11/17 07:51:00;;;;;;;;;2.00;1.00;;;;;1.34;92.38;97277.88;4952158;28;104263;-73
2022/11/17 07:53:28;;;;;;;;;3.25;2.00;;;;;1.37;91.77;97274.00;4974305;28;102479;-73
2022/11/17 07:55:55;;;;;;;;;4.75;3.75;;;;;1.29;91.48;97274.06;4973238;28;102441;-71
2022/11/17 07:58:24;;;;;;;;;2.00;2.00;;;;;1.24;92.00;97266.59;4965851;28;102334;-72
2022/11/17 08:00:51;;;;;;;;;2.00;1.50;;;;;1.33;91.22;97272.69;4970851;28;104021;-72
2022/11/17 08:03:18;;;;;;;;;2.00;2.00;;;;;1.34;91.61;97288.50;4973295;27;102709;-73
2022/11/17 08:05:45;;;;;;;;;2.00;2.00;;;;;1.40;91.68;97292.28;4972591;28;102062;-73
2022/11/17 08:08:12;;;;;;;;;2.00;2.00;;;;;1.42;91.06;97287.63;4971413;28;102018;-73
2022/11/17 08:10:41;;;;;;;;;2.50;2.00;;;;;1.49;92.63;97288.56;4973791;28;104002;-73
2022/11/17 08:13:08;;;;;;;;;4.75;3.25;;;;;1.55;91.62;97285.19;4971926;28;102460;-72
2022/11/17 08:15:35;;;;;;;;;2.25;1.50;;;;;1.53;91.61;97276.53;4966151;28;101956;-73
2022/11/17 08:18:02;;;;;;;;;3.00;2.25;;;;;1.53;91.27;97284.53;4965585;28;102081;-73
2022/11/17 08:20:29;;;;;;;;;3.25;1.00;;;;;1.58;91.05;97281.34;4969609;28;104201;-73
2022/11/17 08:22:57;;;;;;;;;2.75;2.75;;;;;1.52;91.44;97282.91;4973729;27;103342;-73
2022/11/17 08:25:25;;;;;;;;;5.50;2.25;;;;;1.48;91.65;97280.78;4974201;28;102073;-73
2022/11/17 08:27:56;;;;;;;;;5.00;3.25;;;;;1.55;91.76;97274.53;4975721;27;101841;-73
2022/11/17 08:30:24;;;;;;;;;6.25;5.75;;;;;1.52;90.92;97277.56;4971387;28;104278;-73
2022/11/17 08:32:53;;;;;;;;;6.00;5.00;;;;;1.51;90.84;97278.56;4974476;27;101736;-73
2022/11/17 08:35:23;;;;;;;;;4.75;2.50;;;;;1.32;90.96;97245.25;4960833;28;101763;-72
2022/11/17 08:37:50;;;;;;;;;3.00;3.00;;;;;1.57;90.48;97277.88;4963546;28;102202;-74
2022/11/17 08:40:18;;;;;;;;;5.25;3.50;;;;;1.57;90.38;97285.88;4961616;28;103986;-71
2022/11/17 08:42:45;;;;;;;;;2.00;1.75;;;;;1.52;88.46;97287.41;4974890;27;102349;-74
2022/11/17 08:45:13;;;;;;;;;2.00;1.00;;;;;1.42;88.22;97263.66;4971346;28;102332;-72
2022/11/17 08:47:40;;;;;;;;;2.75;2.75;;;;;1.59;89.67;97275.84;4973786;27;102343;-73
2022/11/17 08:50:07;;;;;;;;;5.00;4.00;;;;;1.81;89.22;97274.19;4957116;28;103959;-73
2022/11/17 08:52:34;;;;;;;;;2.25;2.00;;;;;1.78;87.67;97280.72;4978100;27;102332;-73
2022/11/17 08:55:04;;;;;;;;;1.75;1.75;;;;;1.79;88.57;97297.53;4971918;28;102379;-72
2022/11/17 08:57:32;;;;;;;;;2.00;1.75;;;;;1.86;88.11;97297.63;4973377;28;102504;-73
2022/11/17 08:59:59;;;;;;;;;2.75;2.50;;;;;1.84;86.77;97305.00;4973094;28;104157;-74
2022/11/17 09:02:27;;;;;;;;;3.00;2.00;;;;;1.79;87.57;97305.53;4971317;27;105455;-73
2022/11/17 09:04:54;;;;;;;;;2.50;1.75;;;;;1.84;87.76;97311.16;4967499;28;102157;-73
2022/11/17 09:07:21;;;;;;;;;1.50;1.25;;;;;1.94;87.60;97330.38;4974187;28;102349;-73
2022/11/17 09:09:48;;;;;;;;;2.00;2.00;;;;;1.95;87.52;97323.22;4972865;28;104164;-74
2022/11/17 09:12:17;;;;;;;;;4.00;3.25;;;;;1.87;87.87;97315.28;4974777;28;102050;-73
2022/11/17 09:14:44;;;;;;;;;4.00;3.00;;;;;1.80;88.13;97320.50;4972340;28;102287;-72
2022/11/17 09:17:11;;;;;;;;;2.75;2.25;;;;;1.64;88.21;97325.94;4967352;28;102112;-73
2022/11/17 09:19:38;;;;;;;;;3.00;2.25;;;;;1.60;88.73;97306.81;4972465;28;104178;-74
2022/11/17 09:22:05;;;;;;;;;3.00;2.00;;;;;1.59;88.10;97313.13;4966255;28;102033;-74
2022/11/17 09:24:32;;;;;;;;;2.00;2.00;;;;;1.70;86.51;97310.09;4973611;28;103370;-73
2022/11/17 09:27:01;;;;;;;;;3.25;3.00;;;;;1.67;87.77;97305.09;4973817;28;102392;-74
2022/11/17 09:29:29;;;;;;;;;2.50;2.00;;;;;1.66;86.26;97305.28;4972740;28;102908;-72
2022/11/17 09:31:56;;;;;;;;;2.00;2.00;;;;;1.78;87.98;97302.03;4967943;28;103111;-74
2022/11/17 09:34:24;;;;;;;;;2.00;1.00;;;;;2.04;86.88;97311.47;4963173;28;103187;-74
2022/11/17 09:36:51;;;;;;;;;1.00;1.00;;;;;2.07;86.33;97311.94;4972093;28;102472;-74
2022/11/17 09:39:18;;;;;;;;;2.75;2.00;;;;;2.05;85.94;97313.97;4971788;28;104120;-73
2022/11/17 09:41:48;;;;;;;;;4.50;2.75;;;;;2.03;86.77;97310.66;4974552;28;102471;-72
2022/11/17 09:44:27;;;;;;;;;2.00;2.00;;;;;2.13;86.20;97307.72;4960273;28;102010;-72
2022/11/17 09:47:05;;;;;;;;;2.00;2.00;;;;;2.21;85.81;97307.66;4972658;28;102215;-72
2022/11/17 09:49:33;;;;;;;;;1.00;1.00;;;;;1.89;86.76;97310.63;4959064;28;104012;-73
2022/11/17 09:52:31;;;;;;;;;5.75;5.25;;;;;1.86;87.12;97305.63;4972304;27;102412;-73
2022/11/17 09:55:03;;;;;;;;;3.00;3.00;;;;;1.74;88.26;97323.88;4949945;28;102987;-73
2022/11/17 09:57:40;;;;;;;;;5.50;3.00;;;;;1.77;86.40;97323.50;4946658;28;103209;-74
2022/11/17 10:00:17;;;;;;;;;1.50;1.00;;;;;1.76;86.61;97312.03;4961409;28;104229;-74
2022/11/17 10:02:45;;;;;;;;;4.00;2.00;;;;;1.59;86.06;97323.78;4972256;28;102126;-74
2022/11/17 10:05:33;;;;;;;;;4.25;2.00;;;;;1.56;85.78;97329.50;4974022;28;102100;-72
2022/11/17 10:08:10;;;;;;;;;4.00;3.75;;;;;1.51;87.14;97331.84;4970470;28;102459;-73
2022/11/17 10:10:50;;;;;;;;;4.50;4.50;;;;;1.38;86.60;97309.44;4971019;28;103969;-73
2022/11/17 10:13:32;;;;;;;;;0.00;0.00;;;;;1.52;85.77;97322.84;4969558;28;102336;-73
2022/11/17 10:16:13;;;;;;;;;2.00;2.00;;;;;1.43;85.56;97297.28;4962314;28;102041;-73
2022/11/17 10:18:40;;;;;;;;;9.00;6.00;;;;;1.53;87.44;97313.84;4971469;28;102859;-73
2022/11/17 10:21:08;;;;;;;;;9.00;6.75;;;;;1.65;84.77;97309.78;4971159;28;104027;-73
2022/11/17 10:23:37;;;;;;;;;5.75;3.25;;;;;1.67;84.15;97318.41;4973066;28;102130;-72
2022/11/17 10:26:14;;;;;;;;;5.00;4.25;;;;;1.62;84.83;97322.63;4955026;28;102200;-73
2022/11/17 10:28:42;;;;;;;;;5.00;5.00;;;;;1.66;85.71;97318.59;4973236;27;102388;-73
2022/11/17 10:31:18;;;;;;;;;5.75;3.25;;;;;1.67;84.68;97318.41;4974010;28;103947;-72
2022/11/17 10:33:48;;;;;;;;;5.00;3.00;;;;;1.79;84.74;97324.19;4975024;27;102370;-72
2022/11/17 10:36:22;;;;;;;;;2.00;2.00;;;;;1.67;83.58;97326.41;4975517;28;102363;-73
2022/11/17 10:38:54;;;;;;;;;2.75;1.75;;;;;1.69;82.55;97315.59;4974653;28;102149;-72
2022/11/17 10:41:36;;;;;;;;;5.00;2.50;;;;;1.80;83.58;97325.84;4974029;28;104027;-73
2022/11/17 10:44:20;;;;;;;;;3.50;2.25;;;;;1.75;82.46;97318.38;4972060;28;102297;-73
2022/11/17 10:47:02;;;;;;;;;3.50;2.75;;;;;1.70;82.72;97319.91;4971121;28;102308;-72
2022/11/17 10:49:33;;;;;;;;;2.25;2.00;;;;;1.69;81.76;97319.06;4954269;28;102416;-73
2022/11/17 10:52:17;;;;;;;;;5.25;5.00;;;;;1.62;82.18;97322.63;4955017;28;103950;-73
2022/11/17 10:54:44;;;;;;;;;6.25;5.00;;;;;1.61;83.75;97321.81;4969912;28;102048;-72
2022/11/17 10:57:18;;;;;;;;;6.00;5.25;;;;;1.57;82.21;97325.81;4972677;28;102312;-72
2022/11/17 10:59:49;;;;;;;;;4.50;2.00;;;;;1.60;83.19;97327.28;4969967;27;102928;-72
2022/11/17 11:02:29;;;;;;;;;6.25;5.25;;;;;1.58;82.55;97319.47;4973001;28;108773;-72
2022/11/17 11:05:17;;;;;;;;;3.00;3.00;;;;;1.58;82.90;97321.28;4967518;28;101926;-73
2022/11/17 11:07:44;;;;;;;;;4.00;2.75;;;;;1.62;82.59;97326.09;4976188;27;102515;-73
2022/11/17 11:10:17;;;;;;;;;3.25;2.50;;;;;1.56;82.81;97326.81;4970632;28;102455;-73
2022/11/17 11:12:51;;;;;;;;;6.75;6.25;;;;;1.62;83.31;97323.44;4976311;28;108648;-73
2022/11/17 11:15:24;;;;;;;;;6.00;5.00;;;;;1.65;83.53;97315.13;4965744;28;102353;-73
2022/11/17 11:17:51;;;;;;;;;4.00;2.75;;;;;1.63;82.36;97319.78;4960834;27;102199;-73
2022/11/17 11:20:23;;;;;;;;;7.50;6.75;;;;;1.50;84.06;97314.19;4967161;28;102247;-73
2022/11/17 11:23:00;;;;;;;;;6.50;6.00;;;;;1.48;83.67;97310.91;4973765;28;103491;-72
2022/11/17 11:26:05;;;;;;;;;4.75;4.00;;;;;1.47;83.94;97319.88;4973790;28;102274;-73
2022/11/17 11:29:11;;;;;;;;;6.00;6.00;;;;;1.52;84.42;97311.38;4957890;28;102080;-73
2022/11/17 11:31:44;;;;;;;;;4.00;3.00;;;;;1.46;82.51;97307.56;4968410;28;101884;-73
2022/11/17 11:34:40;;;;;;;;;3.25;3.25;;;;;1.49;83.67;97301.88;4971707;27;103005;-73
2022/11/17 11:37:14;;;;;;;;;7.00;5.00;;;;;1.44;82.19;97298.91;4973059;28;102159;-73
2022/11/17 11:40:00;;;;;;;;;8.00;5.25;;;;;1.53;82.85;97297.84;4972509;28;103022;-73
2022/11/17 11:42:56;;;;;;;;;7.50;5.00;;;;;1.62;82.85;97294.13;4971355;28;102210;-73
2022/11/17 11:46:04;;;;;;;;;6.00;6.00;;;;;1.64;82.62;97294.78;4971830;27;107687;-73
2022/11/17 11:48:33;;;;;;;;;3.00;2.75;;;;;1.58;83.15;97300.81;4972974;27;102298;-73
2022/11/17 11:51:24;;;;;;;;;6.50;5.50;;;;;1.66;82.56;97307.94;4974524;28;102007;-74
2022/11/17 11:53:54;;;;;;;;;4.50;3.00;;;;;1.79;82.49;97301.03;4972582;28;102052;-72
2022/11/17 11:56:26;;;;;;;;;9.50;6.75;;;;;1.70;83.88;97298.59;4972896;28;103930;-74
2022/11/17 11:59:01;;;;;;;;;7.00;5.50;;;;;1.60;84.22;97314.81;4973042;27;102430;-72
2022/11/17 12:01:38;;;;;;;;;6.75;5.50;;;;;1.59;83.29;97321.13;4967980;28;102295;-73
2022/11/17 12:04:22;;;;;;;;;8.00;6.75;;;;;1.60;83.68;97316.63;4968341;28;102662;-72
2022/11/17 12:07:00;;;;;;;;;6.25;5.00;;;;;1.54;84.46;97312.84;4972925;28;108760;-72
2022/11/17 12:09:36;;;;;;;;;14.25;10.00;;;;;1.46;84.12;97312.91;4972095;27;103285;-72
2022/11/17 12:12:12;;;;;;;;;9.50;7.25;;;;;1.45;83.82;97324.53;4972693;28;102376;-71
2022/11/17 12:14:40;;;;;;;;;10.00;8.00;;;;;1.46;84.03;97320.06;4973047;28;102259;-72
2022/11/17 12:17:16;;;;;;;;;10.25;8.50;;;;;1.42;83.83;97332.91;4953034;28;103979;-72
2022/11/17 12:19:43;;;;;;;;;7.00;5.50;;;;;1.53;84.87;97340.47;4971511;27;102115;-72
2022/11/17 12:22:39;;;;;;;;;9.75;7.50;;;;;1.58;83.39;97337.28;4972703;28;102103;-72
2022/11/17 12:25:17;;;;;;;;;3.25;2.75;;;;;1.65;84.06;97349.75;4971950;28;102289;-72
2022/11/17 12:27:53;;;;;;;;;7.50;6.00;;;;;1.60;82.53;97344.09;4971996;28;103993;-72
2022/11/17 12:30:43;;;;;;;;;5.50;5.25;;;;;1.39;83.06;97343.91;4970147;28;103228;-72
2022/11/17 12:33:10;;;;;;;;;10.00;7.50;;;;;1.38;83.32;97341.41;4951404;28;102412;-73
2022/11/17 12:35:38;;;;;;;;;9.25;7.25;;;;;1.35;83.46;97348.72;4972854;28;102348;-73